sensor_id;sensor_type;location;lat;lon;timestamp;temperature;humidity
7206;DHT22;3644;53.480;10.004;2024-03-08T00:00:14;5.70;99.90
7206;DHT22;3644;53.480;10.004;2024-03-08T00:02:40;5.70;99.90
7206;DHT22;3644;53.480;10.004;2024-03-08T00:05:06;5.70;99.90
7206;DHT22;3644;53.480;10.004;2024-03-08T00:07:34;5.60;99.90
7206;DHT22;3644;53.480;10.004;2024-03-08T00:10:00;5.50;99.90
7206;DHT22;3644;53.480;10.004;2024-03-08T00:12:25;5.60;99.90
7206;DHT22;3644;53.480;10.004;2024-03-08T00:14:54;5.50;99.90
7206;DHT22;3644;53.480;10.004;2024-03-08T00:17:20;5.40;99.90
7206;DHT22;3644;53.480;10.004;2024-03-08T00:19:51;5.10;99.90
7206;DHT22;3644;53.480;10.004;2024-03-08T00:22:17;5.10;99.90
7206;DHT22;3644;53.480;10.004;2024-03-08T00:24:43;5.20;99.90
7206;DHT22;3644;53.480;10.004;2024-03-08T00:27:08;5.00;99.90
7206;DHT22;3644;53.480;10.004;2024-03-08T00:29:34;5.00;99.90
7206;DHT22;3644;53.480;10.004;2024-03-08T00:32:00;5.10;99.90
7206;DHT22;3644;53.480;10.004;2024-03-08T00:34:26;5.20;99.90
7206;DHT22;3644;53.480;10.004;2024-03-08T00:36:51;5.20;99.90
7206;DHT22;3644;53.480;10.004;2024-03-08T00:39:18;5.20;99.90
7206;DHT22;3644;53.480;10.004;2024-03-08T00:41:45;5.00;99.90
7206;DHT22;3644;53.480;10.004;2024-03-08T00:44:10;5.00;99.90
7206;DHT22;3644;53.480;10.004;2024-03-08T00:46:36;5.10;99.90
7206;DHT22;3644;53.480;10.004;2024-03-08T00:49:01;5.10;99.90
7206;DHT22;3644;53.480;10.004;2024-03-08T00:51:27;5.10;99.90
7206;DHT22;3644;53.480;10.004;2024-03-08T00:53:52;5.00;99.90
7206;DHT22;3644;53.480;10.004;2024-03-08T00:56:18;5.00;99.90
7206;DHT22;3644;53.480;10.004;2024-03-08T00:58:44;5.10;99.90
7206;DHT22;3644;53.480;10.004;2024-03-08T01:01:09;5.10;99.90
7206;DHT22;3644;53.480;10.004;2024-03-08T01:03:35;4.80;99.90
7206;DHT22;3644;53.480;10.004;2024-03-08T01:06:01;4.70;99.90
7206;DHT22;3644;53.480;10.004;2024-03-08T01:08:27;4.80;99.90
7206;DHT22;3644;53.480;10.004;2024-03-08T01:10:53;5.00;99.90
7206;DHT22;3644;53.480;10.004;2024-03-08T01:13:19;5.10;99.90
7206;DHT22;3644;53.480;10.004;2024-03-08T01:15:45;5.10;99.90
7206;DHT22;3644;53.480;10.004;2024-03-08T01:18:11;5.00;99.90
7206;DHT22;3644;53.480;10.004;2024-03-08T01:20:36;5.10;99.90
7206;DHT22;3644;53.480;10.004;2024-03-08T01:23:02;5.00;99.90
7206;DHT22;3644;53.480;10.004;2024-03-08T01:25:28;5.00;99.90
7206;DHT22;3644;53.480;10.004;2024-03-08T01:27:54;5.00;99.90
7206;DHT22;3644;53.480;10.004;2024-03-08T01:30:20;4.90;99.90
7206;DHT22;3644;53.480;10.004;2024-03-08T01:32:45;4.90;99.90
7206;DHT22;3644;53.480;10.004;2024-03-08T01:35:11;4.90;99.90
7206;DHT22;3644;53.480;10.004;2024-03-08T01:37:36;5.00;99.90
7206;DHT22;3644;53.480;10.004;2024-03-08T01:40:02;4.80;99.90
7206;DHT22;3644;53.480;10.004;2024-03-08T01:42:28;4.90;99.90
7206;DHT22;3644;53.480;10.004;2024-03-08T01:44:54;5.00;99.90
7206;DHT22;3644;53.480;10.004;2024-03-08T01:47:21;4.90;99.90
7206;DHT22;3644;53.480;10.004;2024-03-08T01:49:49;4.90;99.90
7206;DHT22;3644;53.480;10.004;2024-03-08T01:52:15;4.70;99.90
7206;DHT22;3644;53.480;10.004;2024-03-08T01:54:41;4.70;99.90
7206;DHT22;3644;53.480;10.004;2024-03-08T01:57:07;4.70;99.90
7206;DHT22;3644;53.480;10.004;2024-03-08T01:59:32;4.80;99.90
7206;DHT22;3644;53.480;10.004;2024-03-08T02:02:01;4.90;99.90
7206;DHT22;3644;53.480;10.004;2024-03-08T02:04:29;4.80;99.90
7206;DHT22;3644;53.480;10.004;2024-03-08T02:06:56;4.70;99.90
7206;DHT22;3644;53.480;10.004;2024-03-08T02:09:23;4.60;99.90
7206;DHT22;3644;53.480;10.004;2024-03-08T02:11:50;4.60;99.90
7206;DHT22;3644;53.480;10.004;2024-03-08T02:14:16;4.60;99.90
7206;DHT22;3644;53.480;10.004;2024-03-08T02:16:42;4.70;99.90
7206;DHT22;3644;53.480;10.004;2024-03-08T02:19:07;4.70;99.90
7206;DHT22;3644;53.480;10.004;2024-03-08T02:21:35;4.60;99.90
7206;DHT22;3644;53.480;10.004;2024-03-08T02:24:01;4.60;99.90
7206;DHT22;3644;53.480;10.004;2024-03-08T02:26:27;4.60;99.90
7206;DHT22;3644;53.480;10.004;2024-03-08T02:28:52;4.80;99.90
7206;DHT22;3644;53.480;10.004;2024-03-08T02:31:18;4.60;99.90
7206;DHT22;3644;53.480;10.004;2024-03-08T02:33:43;4.50;99.90
7206;DHT22;3644;53.480;10.004;2024-03-08T02:36:09;4.30;99.90
7206;DHT22;3644;53.480;10.004;2024-03-08T02:38:35;4.20;99.90
7206;DHT22;3644;53.480;10.004;2024-03-08T02:41:00;4.30;99.90
7206;DHT22;3644;53.480;10.004;2024-03-08T02:43:26;4.40;99.90
7206;DHT22;3644;53.480;10.004;2024-03-08T02:45:51;4.30;99.90
7206;DHT22;3644;53.480;10.004;2024-03-08T02:48:20;4.30;99.90
7206;DHT22;3644;53.480;10.004;2024-03-08T02:50:47;4.00;99.90
7206;DHT22;3644;53.480;10.004;2024-03-08T02:53:13;3.90;99.90
7206;DHT22;3644;53.480;10.004;2024-03-08T02:55:39;3.70;99.90
7206;DHT22;3644;53.480;10.004;2024-03-08T02:58:07;3.50;99.90
7206;DHT22;3644;53.480;10.004;2024-03-08T03:00:35;3.60;99.90
7206;DHT22;3644;53.480;10.004;2024-03-08T03:03:01;3.80;99.90
7206;DHT22;3644;53.480;10.004;2024-03-08T03:05:28;3.80;99.90
7206;DHT22;3644;53.480;10.004;2024-03-08T03:07:55;3.90;99.90
7206;DHT22;3644;53.480;10.004;2024-03-08T03:10:20;3.80;99.90
7206;DHT22;3644;53.480;10.004;2024-03-08T03:12:47;3.50;99.90
7206;DHT22;3644;53.480;10.004;2024-03-08T03:15:14;3.40;99.90
7206;DHT22;3644;53.480;10.004;2024-03-08T03:17:40;3.30;99.90
7206;DHT22;3644;53.480;10.004;2024-03-08T03:20:07;3.30;99.90
7206;DHT22;3644;53.480;10.004;2024-03-08T03:22:39;3.30;99.90
7206;DHT22;3644;53.480;10.004;2024-03-08T03:25:06;3.50;99.90
7206;DHT22;3644;53.480;10.004;2024-03-08T03:27:32;3.50;99.90
7206;DHT22;3644;53.480;10.004;2024-03-08T03:29:58;3.50;99.90
7206;DHT22;3644;53.480;10.004;2024-03-08T03:32:24;3.50;99.90
7206;DHT22;3644;53.480;10.004;2024-03-08T03:34:49;3.60;99.90
7206;DHT22;3644;53.480;10.004;2024-03-08T03:37:19;3.70;99.90
7206;DHT22;3644;53.480;10.004;2024-03-08T03:39:45;3.70;99.90
7206;DHT22;3644;53.480;10.004;2024-03-08T03:42:19;3.70;99.90
7206;DHT22;3644;53.480;10.004;2024-03-08T03:44:46;3.70;99.90
7206;DHT22;3644;53.480;10.004;2024-03-08T03:47:12;3.60;99.90
7206;DHT22;3644;53.480;10.004;2024-03-08T03:49:38;3.40;99.90
7206;DHT22;3644;53.480;10.004;2024-03-08T03:52:03;3.40;99.90
7206;DHT22;3644;53.480;10.004;2024-03-08T03:54:30;3.40;99.90
7206;DHT22;3644;53.480;10.004;2024-03-08T03:56:56;3.60;99.90
7206;DHT22;3644;53.480;10.004;2024-03-08T03:59:21;3.70;99.90
7206;DHT22;3644;53.480;10.004;2024-03-08T04:01:47;3.80;99.90
7206;DHT22;3644;53.480;10.004;2024-03-08T04:04:14;3.90;99.90
7206;DHT22;3644;53.480;10.004;2024-03-08T04:06:39;3.90;99.90
7206;DHT22;3644;53.480;10.004;2024-03-08T04:09:05;3.80;99.90
7206;DHT22;3644;53.480;10.004;2024-03-08T04:11:30;3.80;99.90
7206;DHT22;3644;53.480;10.004;2024-03-08T04:13:56;3.90;99.90
7206;DHT22;3644;53.480;10.004;2024-03-08T04:16:21;3.80;99.90
7206;DHT22;3644;53.480;10.004;2024-03-08T04:18:47;3.60;99.90
7206;DHT22;3644;53.480;10.004;2024-03-08T04:21:13;2.90;99.90
7206;DHT22;3644;53.480;10.004;2024-03-08T04:23:38;2.80;99.90
7206;DHT22;3644;53.480;10.004;2024-03-08T04:26:04;2.90;99.90
7206;DHT22;3644;53.480;10.004;2024-03-08T04:28:31;2.90;99.90
7206;DHT22;3644;53.480;10.004;2024-03-08T04:30:57;2.90;99.90
7206;DHT22;3644;53.480;10.004;2024-03-08T04:33:22;2.90;99.90
7206;DHT22;3644;53.480;10.004;2024-03-08T04:35:49;2.90;99.90
7206;DHT22;3644;53.480;10.004;2024-03-08T04:38:14;2.90;99.90
7206;DHT22;3644;53.480;10.004;2024-03-08T04:40:41;3.00;99.90
7206;DHT22;3644;53.480;10.004;2024-03-08T04:43:06;2.90;99.90
7206;DHT22;3644;53.480;10.004;2024-03-08T04:45:33;3.10;99.90
7206;DHT22;3644;53.480;10.004;2024-03-08T04:47:59;3.20;99.90
7206;DHT22;3644;53.480;10.004;2024-03-08T04:50:24;3.40;99.90
7206;DHT22;3644;53.480;10.004;2024-03-08T04:52:50;3.30;99.90
7206;DHT22;3644;53.480;10.004;2024-03-08T04:55:15;3.20;99.90
7206;DHT22;3644;53.480;10.004;2024-03-08T04:57:41;3.20;99.90
7206;DHT22;3644;53.480;10.004;2024-03-08T05:00:11;3.40;99.90
7206;DHT22;3644;53.480;10.004;2024-03-08T05:02:38;3.20;99.90
7206;DHT22;3644;53.480;10.004;2024-03-08T05:05:07;3.20;99.90
7206;DHT22;3644;53.480;10.004;2024-03-08T05:07:33;3.10;99.90
7206;DHT22;3644;53.480;10.004;2024-03-08T05:09:59;3.30;99.90
7206;DHT22;3644;53.480;10.004;2024-03-08T05:12:24;3.30;99.90
7206;DHT22;3644;53.480;10.004;2024-03-08T05:14:50;3.30;99.90
7206;DHT22;3644;53.480;10.004;2024-03-08T05:17:16;3.40;99.90
7206;DHT22;3644;53.480;10.004;2024-03-08T05:19:42;3.60;99.90
7206;DHT22;3644;53.480;10.004;2024-03-08T05:22:08;3.60;99.90
7206;DHT22;3644;53.480;10.004;2024-03-08T05:24:34;3.50;99.90
7206;DHT22;3644;53.480;10.004;2024-03-08T05:26:59;3.50;99.90
7206;DHT22;3644;53.480;10.004;2024-03-08T05:29:26;3.20;99.90
7206;DHT22;3644;53.480;10.004;2024-03-08T05:31:52;3.10;99.90
7206;DHT22;3644;53.480;10.004;2024-03-08T05:34:18;3.10;99.90
7206;DHT22;3644;53.480;10.004;2024-03-08T05:36:45;3.20;99.90
7206;DHT22;3644;53.480;10.004;2024-03-08T05:39:14;3.40;99.90
7206;DHT22;3644;53.480;10.004;2024-03-08T05:41:40;3.40;99.90
7206;DHT22;3644;53.480;10.004;2024-03-08T05:44:06;3.50;99.90
7206;DHT22;3644;53.480;10.004;2024-03-08T05:46:33;3.50;99.90
7206;DHT22;3644;53.480;10.004;2024-03-08T05:48:58;3.60;99.90
7206;DHT22;3644;53.480;10.004;2024-03-08T05:51:25;3.70;99.90
7206;DHT22;3644;53.480;10.004;2024-03-08T05:53:53;3.60;99.90
7206;DHT22;3644;53.480;10.004;2024-03-08T05:56:19;3.50;99.90
7206;DHT22;3644;53.480;10.004;2024-03-08T05:58:44;3.60;99.90
7206;DHT22;3644;53.480;10.004;2024-03-08T06:01:11;3.60;99.90
7206;DHT22;3644;53.480;10.004;2024-03-08T06:03:38;3.70;99.90
7206;DHT22;3644;53.480;10.004;2024-03-08T06:06:13;3.70;99.90
7206;DHT22;3644;53.480;10.004;2024-03-08T06:08:39;3.50;99.90
7206;DHT22;3644;53.480;10.004;2024-03-08T06:11:05;3.50;99.90
7206;DHT22;3644;53.480;10.004;2024-03-08T06:13:34;3.60;99.90
7206;DHT22;3644;53.480;10.004;2024-03-08T06:16:00;3.60;99.90
7206;DHT22;3644;53.480;10.004;2024-03-08T06:18:30;3.60;99.90
7206;DHT22;3644;53.480;10.004;2024-03-08T06:20:56;3.50;99.90
7206;DHT22;3644;53.480;10.004;2024-03-08T06:23:22;3.70;99.90
7206;DHT22;3644;53.480;10.004;2024-03-08T06:25:47;3.50;99.90
7206;DHT22;3644;53.480;10.004;2024-03-08T06:28:13;3.40;99.90
7206;DHT22;3644;53.480;10.004;2024-03-08T06:30:39;3.40;99.90
7206;DHT22;3644;53.480;10.004;2024-03-08T06:33:05;3.50;99.90
7206;DHT22;3644;53.480;10.004;2024-03-08T06:35:30;3.50;99.90
7206;DHT22;3644;53.480;10.004;2024-03-08T06:37:58;3.30;99.90
7206;DHT22;3644;53.480;10.004;2024-03-08T06:40:23;3.40;99.90
7206;DHT22;3644;53.480;10.004;2024-03-08T06:42:49;3.30;99.90
7206;DHT22;3644;53.480;10.004;2024-03-08T06:45:14;3.20;99.90
7206;DHT22;3644;53.480;10.004;2024-03-08T06:47:44;3.10;99.90
7206;DHT22;3644;53.480;10.004;2024-03-08T06:50:11;3.20;99.90
7206;DHT22;3644;53.480;10.004;2024-03-08T06:52:37;3.40;99.90
7206;DHT22;3644;53.480;10.004;2024-03-08T06:55:03;3.50;99.90
7206;DHT22;3644;53.480;10.004;2024-03-08T06:57:31;3.70;99.90
7206;DHT22;3644;53.480;10.004;2024-03-08T06:59:56;3.70;99.90
7206;DHT22;3644;53.480;10.004;2024-03-08T07:02:23;4.00;99.90
7206;DHT22;3644;53.480;10.004;2024-03-08T07:04:50;4.00;99.90
7206;DHT22;3644;53.480;10.004;2024-03-08T07:07:15;3.90;99.90
7206;DHT22;3644;53.480;10.004;2024-03-08T07:09:44;4.00;99.90
7206;DHT22;3644;53.480;10.004;2024-03-08T07:12:10;4.00;99.90
7206;DHT22;3644;53.480;10.004;2024-03-08T07:14:37;4.00;99.90
7206;DHT22;3644;53.480;10.004;2024-03-08T07:17:06;4.00;99.90
7206;DHT22;3644;53.480;10.004;2024-03-08T07:19:34;3.90;99.90
7206;DHT22;3644;53.480;10.004;2024-03-08T07:22:00;3.90;99.90
7206;DHT22;3644;53.480;10.004;2024-03-08T07:24:25;3.80;99.90
7206;DHT22;3644;53.480;10.004;2024-03-08T07:27:14;4.00;99.90
7206;DHT22;3644;53.480;10.004;2024-03-08T07:29:39;3.70;99.90
7206;DHT22;3644;53.480;10.004;2024-03-08T07:32:05;3.70;99.90
7206;DHT22;3644;53.480;10.004;2024-03-08T07:34:43;3.70;99.90
7206;DHT22;3644;53.480;10.004;2024-03-08T07:37:08;3.60;99.90
7206;DHT22;3644;53.480;10.004;2024-03-08T07:39:38;3.40;99.90
7206;DHT22;3644;53.480;10.004;2024-03-08T07:42:04;3.20;99.90
7206;DHT22;3644;53.480;10.004;2024-03-08T07:44:30;3.50;99.90
7206;DHT22;3644;53.480;10.004;2024-03-08T07:46:57;3.70;99.90
7206;DHT22;3644;53.480;10.004;2024-03-08T07:49:22;4.00;99.90
7206;DHT22;3644;53.480;10.004;2024-03-08T07:51:48;4.00;99.90
7206;DHT22;3644;53.480;10.004;2024-03-08T07:54:14;3.70;99.90
7206;DHT22;3644;53.480;10.004;2024-03-08T07:56:40;3.70;99.90
7206;DHT22;3644;53.480;10.004;2024-03-08T07:59:05;3.60;99.90
7206;DHT22;3644;53.480;10.004;2024-03-08T08:01:31;3.90;99.90
7206;DHT22;3644;53.480;10.004;2024-03-08T08:03:59;4.00;99.90
7206;DHT22;3644;53.480;10.004;2024-03-08T08:06:24;4.20;99.90
7206;DHT22;3644;53.480;10.004;2024-03-08T08:08:50;4.30;99.90
7206;DHT22;3644;53.480;10.004;2024-03-08T08:11:16;4.40;99.90
7206;DHT22;3644;53.480;10.004;2024-03-08T08:13:41;4.40;99.90
7206;DHT22;3644;53.480;10.004;2024-03-08T08:16:08;4.40;99.90
7206;DHT22;3644;53.480;10.004;2024-03-08T08:18:34;4.60;99.90
7206;DHT22;3644;53.480;10.004;2024-03-08T08:21:02;4.60;99.90
7206;DHT22;3644;53.480;10.004;2024-03-08T08:23:27;4.60;99.90
7206;DHT22;3644;53.480;10.004;2024-03-08T08:25:53;4.80;99.90
7206;DHT22;3644;53.480;10.004;2024-03-08T08:28:18;4.90;99.90
7206;DHT22;3644;53.480;10.004;2024-03-08T08:30:44;5.00;99.90
7206;DHT22;3644;53.480;10.004;2024-03-08T08:33:10;5.00;99.90
7206;DHT22;3644;53.480;10.004;2024-03-08T08:35:39;5.00;99.90
7206;DHT22;3644;53.480;10.004;2024-03-08T08:38:05;5.20;99.90
7206;DHT22;3644;53.480;10.004;2024-03-08T08:40:30;5.10;99.90
7206;DHT22;3644;53.480;10.004;2024-03-08T08:42:57;5.10;99.90
7206;DHT22;3644;53.480;10.004;2024-03-08T08:45:23;5.00;99.90
7206;DHT22;3644;53.480;10.004;2024-03-08T08:47:49;5.20;99.90
7206;DHT22;3644;53.480;10.004;2024-03-08T08:50:15;5.20;99.90
7206;DHT22;3644;53.480;10.004;2024-03-08T08:52:42;5.00;99.90
7206;DHT22;3644;53.480;10.004;2024-03-08T08:55:09;4.80;99.90
7206;DHT22;3644;53.480;10.004;2024-03-08T08:57:36;4.90;99.90
7206;DHT22;3644;53.480;10.004;2024-03-08T09:00:03;5.00;99.90
7206;DHT22;3644;53.480;10.004;2024-03-08T09:02:33;5.30;99.90
7206;DHT22;3644;53.480;10.004;2024-03-08T09:04:59;5.30;99.90
7206;DHT22;3644;53.480;10.004;2024-03-08T09:07:26;5.20;99.90
7206;DHT22;3644;53.480;10.004;2024-03-08T09:09:53;5.20;99.90
7206;DHT22;3644;53.480;10.004;2024-03-08T09:12:22;5.30;99.90
7206;DHT22;3644;53.480;10.004;2024-03-08T09:14:48;5.50;99.90
7206;DHT22;3644;53.480;10.004;2024-03-08T09:17:14;5.60;99.90
7206;DHT22;3644;53.480;10.004;2024-03-08T09:19:43;5.60;99.90
7206;DHT22;3644;53.480;10.004;2024-03-08T09:22:08;5.60;99.90
7206;DHT22;3644;53.480;10.004;2024-03-08T09:24:34;5.40;99.90
7206;DHT22;3644;53.480;10.004;2024-03-08T09:26:59;5.60;99.90
7206;DHT22;3644;53.480;10.004;2024-03-08T09:29:25;5.50;99.90
7206;DHT22;3644;53.480;10.004;2024-03-08T09:31:51;5.70;99.90
7206;DHT22;3644;53.480;10.004;2024-03-08T09:34:17;6.00;99.90
7206;DHT22;3644;53.480;10.004;2024-03-08T09:36:44;6.20;99.90
7206;DHT22;3644;53.480;10.004;2024-03-08T09:39:10;6.40;99.90
7206;DHT22;3644;53.480;10.004;2024-03-08T09:41:42;6.60;99.90
7206;DHT22;3644;53.480;10.004;2024-03-08T09:44:08;6.80;99.90
7206;DHT22;3644;53.480;10.004;2024-03-08T09:46:34;6.50;99.90
7206;DHT22;3644;53.480;10.004;2024-03-08T09:48:59;6.60;99.90
7206;DHT22;3644;53.480;10.004;2024-03-08T09:51:28;6.50;99.90
7206;DHT22;3644;53.480;10.004;2024-03-08T09:53:54;6.60;99.90
7206;DHT22;3644;53.480;10.004;2024-03-08T09:56:21;6.30;99.90
7206;DHT22;3644;53.480;10.004;2024-03-08T09:58:46;6.40;99.90
7206;DHT22;3644;53.480;10.004;2024-03-08T10:01:31;6.40;99.90
7206;DHT22;3644;53.480;10.004;2024-03-08T10:03:57;6.70;99.90
7206;DHT22;3644;53.480;10.004;2024-03-08T10:06:23;6.80;99.90
7206;DHT22;3644;53.480;10.004;2024-03-08T10:08:49;7.10;99.90
7206;DHT22;3644;53.480;10.004;2024-03-08T10:11:17;7.20;99.90
7206;DHT22;3644;53.480;10.004;2024-03-08T10:13:44;7.20;99.90
7206;DHT22;3644;53.480;10.004;2024-03-08T10:16:10;7.00;99.90
7206;DHT22;3644;53.480;10.004;2024-03-08T10:18:35;7.00;99.90
7206;DHT22;3644;53.480;10.004;2024-03-08T10:21:05;7.20;99.90
7206;DHT22;3644;53.480;10.004;2024-03-08T10:23:31;7.40;99.90
7206;DHT22;3644;53.480;10.004;2024-03-08T10:26:09;7.40;99.90
7206;DHT22;3644;53.480;10.004;2024-03-08T10:28:35;7.50;99.90
7206;DHT22;3644;53.480;10.004;2024-03-08T10:31:00;7.60;99.90
7206;DHT22;3644;53.480;10.004;2024-03-08T10:33:26;7.80;99.90
7206;DHT22;3644;53.480;10.004;2024-03-08T10:35:52;7.80;99.90
7206;DHT22;3644;53.480;10.004;2024-03-08T10:38:20;7.60;99.90
7206;DHT22;3644;53.480;10.004;2024-03-08T10:40:47;7.50;99.90
7206;DHT22;3644;53.480;10.004;2024-03-08T10:43:23;7.60;99.90
7206;DHT22;3644;53.480;10.004;2024-03-08T10:46:04;7.70;99.90
7206;DHT22;3644;53.480;10.004;2024-03-08T10:48:32;7.90;99.90
7206;DHT22;3644;53.480;10.004;2024-03-08T10:51:04;8.00;99.90
7206;DHT22;3644;53.480;10.004;2024-03-08T10:53:30;8.00;99.90
7206;DHT22;3644;53.480;10.004;2024-03-08T10:55:57;8.00;99.90
7206;DHT22;3644;53.480;10.004;2024-03-08T10:58:24;7.90;99.90
7206;DHT22;3644;53.480;10.004;2024-03-08T11:00:53;8.00;99.90
7206;DHT22;3644;53.480;10.004;2024-03-08T11:06:47;7.90;99.90
7206;DHT22;3644;53.480;10.004;2024-03-08T11:09:27;8.00;99.90
7206;DHT22;3644;53.480;10.004;2024-03-08T11:12:22;7.80;99.90
7206;DHT22;3644;53.480;10.004;2024-03-08T11:14:52;8.00;99.90
7206;DHT22;3644;53.480;10.004;2024-03-08T11:17:39;8.20;99.90
7206;DHT22;3644;53.480;10.004;2024-03-08T11:22:41;8.50;99.90
7206;DHT22;3644;53.480;10.004;2024-03-08T11:25:39;8.50;99.90
7206;DHT22;3644;53.480;10.004;2024-03-08T11:28:27;8.40;99.90
7206;DHT22;3644;53.480;10.004;2024-03-08T11:33:27;8.30;99.90
7206;DHT22;3644;53.480;10.004;2024-03-08T11:38:40;8.50;99.90
7206;DHT22;3644;53.480;10.004;2024-03-08T11:41:07;8.60;99.90
7206;DHT22;3644;53.480;10.004;2024-03-08T11:43:33;8.70;99.90
7206;DHT22;3644;53.480;10.004;2024-03-08T11:46:11;8.70;99.90
7206;DHT22;3644;53.480;10.004;2024-03-08T11:48:39;8.80;99.90
7206;DHT22;3644;53.480;10.004;2024-03-08T11:51:05;8.90;99.90
7206;DHT22;3644;53.480;10.004;2024-03-08T11:53:31;8.80;99.90
7206;DHT22;3644;53.480;10.004;2024-03-08T11:56:15;8.90;99.90
7206;DHT22;3644;53.480;10.004;2024-03-08T11:58:41;9.00;99.90
7206;DHT22;3644;53.480;10.004;2024-03-08T12:01:10;9.10;99.90
7206;DHT22;3644;53.480;10.004;2024-03-08T12:03:41;8.90;99.90
7206;DHT22;3644;53.480;10.004;2024-03-08T12:06:12;8.90;99.90
7206;DHT22;3644;53.480;10.004;2024-03-08T12:08:40;9.20;99.90
7206;DHT22;3644;53.480;10.004;2024-03-08T12:11:06;9.10;99.90
7206;DHT22;3644;53.480;10.004;2024-03-08T12:13:33;9.20;99.90
7206;DHT22;3644;53.480;10.004;2024-03-08T12:16:00;9.10;99.90
7206;DHT22;3644;53.480;10.004;2024-03-08T12:18:26;9.20;99.90
7206;DHT22;3644;53.480;10.004;2024-03-08T12:21:04;9.30;99.90
7206;DHT22;3644;53.480;10.004;2024-03-08T12:23:29;9.30;99.90
7206;DHT22;3644;53.480;10.004;2024-03-08T12:25:56;9.40;99.90
7206;DHT22;3644;53.480;10.004;2024-03-08T12:28:22;9.20;99.90
7206;DHT22;3644;53.480;10.004;2024-03-08T12:30:51;9.40;99.90
7206;DHT22;3644;53.480;10.004;2024-03-08T12:33:22;9.50;99.90
7206;DHT22;3644;53.480;10.004;2024-03-08T12:35:54;9.60;99.90
7206;DHT22;3644;53.480;10.004;2024-03-08T12:38:21;9.60;99.90
7206;DHT22;3644;53.480;10.004;2024-03-08T12:40:50;9.70;99.90
7206;DHT22;3644;53.480;10.004;2024-03-08T12:43:16;9.90;99.90
7206;DHT22;3644;53.480;10.004;2024-03-08T12:45:41;9.90;99.90
7206;DHT22;3644;53.480;10.004;2024-03-08T12:48:13;9.80;99.90
7206;DHT22;3644;53.480;10.004;2024-03-08T12:50:42;9.40;99.90
7206;DHT22;3644;53.480;10.004;2024-03-08T12:53:13;9.10;99.90
7206;DHT22;3644;53.480;10.004;2024-03-08T12:55:39;9.20;99.90
7206;DHT22;3644;53.480;10.004;2024-03-08T12:58:04;9.30;99.90
7206;DHT22;3644;53.480;10.004;2024-03-08T13:00:33;9.70;99.90
7206;DHT22;3644;53.480;10.004;2024-03-08T13:03:01;9.90;99.90
7206;DHT22;3644;53.480;10.004;2024-03-08T13:05:27;10.00;99.90
7206;DHT22;3644;53.480;10.004;2024-03-08T13:07:53;10.10;99.90
7206;DHT22;3644;53.480;10.004;2024-03-08T13:10:20;10.20;99.90
7206;DHT22;3644;53.480;10.004;2024-03-08T13:12:45;10.40;99.90
7206;DHT22;3644;53.480;10.004;2024-03-08T13:15:11;10.50;99.90
7206;DHT22;3644;53.480;10.004;2024-03-08T13:17:48;10.60;99.90
7206;DHT22;3644;53.480;10.004;2024-03-08T13:20:14;10.30;99.80
7206;DHT22;3644;53.480;10.004;2024-03-08T13:22:45;10.50;99.90
7206;DHT22;3644;53.480;10.004;2024-03-08T13:25:12;10.50;99.20
7206;DHT22;3644;53.480;10.004;2024-03-08T13:27:42;10.60;96.80
7206;DHT22;3644;53.480;10.004;2024-03-08T13:30:14;10.60;96.70
7206;DHT22;3644;53.480;10.004;2024-03-08T13:32:43;10.60;97.00
7206;DHT22;3644;53.480;10.004;2024-03-08T13:35:10;10.60;96.40
7206;DHT22;3644;53.480;10.004;2024-03-08T13:37:39;10.90;95.10
7206;DHT22;3644;53.480;10.004;2024-03-08T13:40:06;11.00;94.20
7206;DHT22;3644;53.480;10.004;2024-03-08T13:42:31;11.20;92.70
7206;DHT22;3644;53.480;10.004;2024-03-08T13:44:57;11.00;91.50
7206;DHT22;3644;53.480;10.004;2024-03-08T13:47:22;10.80;91.50
7206;DHT22;3644;53.480;10.004;2024-03-08T13:49:49;10.80;91.70
7206;DHT22;3644;53.480;10.004;2024-03-08T13:52:16;10.90;90.70
7206;DHT22;3644;53.480;10.004;2024-03-08T13:54:42;10.90;90.50
7206;DHT22;3644;53.480;10.004;2024-03-08T13:57:08;11.10;90.70
7206;DHT22;3644;53.480;10.004;2024-03-08T13:59:34;10.90;91.10
7206;DHT22;3644;53.480;10.004;2024-03-08T14:02:01;10.90;89.90
7206;DHT22;3644;53.480;10.004;2024-03-08T14:04:28;10.90;90.20
7206;DHT22;3644;53.480;10.004;2024-03-08T14:06:53;11.10;90.70
7206;DHT22;3644;53.480;10.004;2024-03-08T14:09:23;11.10;90.80
7206;DHT22;3644;53.480;10.004;2024-03-08T14:11:51;11.00;90.30
7206;DHT22;3644;53.480;10.004;2024-03-08T14:14:19;10.70;91.50
7206;DHT22;3644;53.480;10.004;2024-03-08T14:16:46;10.80;91.40
7206;DHT22;3644;53.480;10.004;2024-03-08T14:19:13;10.90;91.20
7206;DHT22;3644;53.480;10.004;2024-03-08T14:21:39;11.10;88.80
7206;DHT22;3644;53.480;10.004;2024-03-08T14:24:07;11.00;86.10
7206;DHT22;3644;53.480;10.004;2024-03-08T14:26:33;11.10;86.50
7206;DHT22;3644;53.480;10.004;2024-03-08T14:28:59;10.80;85.80
7206;DHT22;3644;53.480;10.004;2024-03-08T14:31:25;10.80;86.90
7206;DHT22;3644;53.480;10.004;2024-03-08T14:33:51;10.60;87.10
7206;DHT22;3644;53.480;10.004;2024-03-08T14:36:18;10.80;86.20
7206;DHT22;3644;53.480;10.004;2024-03-08T14:38:45;11.00;88.00
7206;DHT22;3644;53.480;10.004;2024-03-08T14:41:12;11.10;90.00
7206;DHT22;3644;53.480;10.004;2024-03-08T14:43:39;11.00;86.40
7206;DHT22;3644;53.480;10.004;2024-03-08T14:46:04;11.10;87.50
7206;DHT22;3644;53.480;10.004;2024-03-08T14:48:31;11.20;88.70
7206;DHT22;3644;53.480;10.004;2024-03-08T14:50:56;11.40;87.70
7206;DHT22;3644;53.480;10.004;2024-03-08T14:53:22;11.30;83.10
7206;DHT22;3644;53.480;10.004;2024-03-08T14:55:47;10.90;83.30
7206;DHT22;3644;53.480;10.004;2024-03-08T14:58:13;11.10;85.60
7206;DHT22;3644;53.480;10.004;2024-03-08T15:00:39;11.20;85.10
7206;DHT22;3644;53.480;10.004;2024-03-08T15:03:07;11.10;84.30
7206;DHT22;3644;53.480;10.004;2024-03-08T15:05:35;11.10;84.50
7206;DHT22;3644;53.480;10.004;2024-03-08T15:08:07;11.20;85.60
7206;DHT22;3644;53.480;10.004;2024-03-08T15:10:36;11.20;86.70
7206;DHT22;3644;53.480;10.004;2024-03-08T15:13:02;11.20;83.70
7206;DHT22;3644;53.480;10.004;2024-03-08T15:15:33;11.20;83.40
7206;DHT22;3644;53.480;10.004;2024-03-08T15:17:59;11.20;85.20
7206;DHT22;3644;53.480;10.004;2024-03-08T15:20:24;11.30;86.20
7206;DHT22;3644;53.480;10.004;2024-03-08T15:22:53;11.40;85.30
7206;DHT22;3644;53.480;10.004;2024-03-08T15:25:20;11.30;84.90
7206;DHT22;3644;53.480;10.004;2024-03-08T15:27:54;11.20;85.30
7206;DHT22;3644;53.480;10.004;2024-03-08T15:30:20;11.30;90.20
7206;DHT22;3644;53.480;10.004;2024-03-08T15:32:52;11.40;86.00
7206;DHT22;3644;53.480;10.004;2024-03-08T15:35:22;11.50;86.10
7206;DHT22;3644;53.480;10.004;2024-03-08T15:37:48;11.50;85.30
7206;DHT22;3644;53.480;10.004;2024-03-08T15:40:13;11.40;84.90
7206;DHT22;3644;53.480;10.004;2024-03-08T15:45:20;11.10;83.60
7206;DHT22;3644;53.480;10.004;2024-03-08T15:47:45;11.20;83.70
7206;DHT22;3644;53.480;10.004;2024-03-08T15:50:11;11.30;83.10
7206;DHT22;3644;53.480;10.004;2024-03-08T15:52:38;11.20;83.40
7206;DHT22;3644;53.480;10.004;2024-03-08T15:55:07;11.20;83.00
7206;DHT22;3644;53.480;10.004;2024-03-08T15:57:33;10.90;84.70
7206;DHT22;3644;53.480;10.004;2024-03-08T15:59:59;11.00;84.60
7206;DHT22;3644;53.480;10.004;2024-03-08T16:02:26;11.20;85.60
7206;DHT22;3644;53.480;10.004;2024-03-08T16:04:53;11.20;86.60
7206;DHT22;3644;53.480;10.004;2024-03-08T16:07:19;11.10;85.20
7206;DHT22;3644;53.480;10.004;2024-03-08T16:09:45;11.00;83.10
7206;DHT22;3644;53.480;10.004;2024-03-08T16:12:10;10.80;84.70